Time;durP1;ratioP1;P1;durP2;ratioP2;P2;SDS_P1;SDS_P2;PMS_P1;PMS_P2;Temp;Humidity;BMP_temperature;BMP_pressure;BME280_temperature;BME280_humidity;BME280_pressure;Samples;Min_cycle;Max_cycle;Signal;HPM_P1;HPM_P2
2022/06/11 00:01:52;;;;;;;2.93;2.70;;;;;;;;;;4954672;28;20546;-54
2022/06/11 00:04:21;;;;;;;7.80;3.10;;;;;;;;;;4955103;29;20412;-54
2022/06/11 00:06:48;;;;;;;4.40;3.07;;;;;;;;;;4955074;29;20470;-54
2022/06/11 00:09:14;;;;;;;4.07;3.17;;;;;;;;;;4954869;29;20417;-54
2022/06/11 00:11:41;;;;;;;2.97;2.50;;;;;;;;;;4954570;28;20430;-54
2022/06/11 00:14:07;;;;;;;2.90;2.63;;;;;;;;;;4954837;29;20771;-54
2022/06/11 00:16:33;;;;;;;7.77;2.90;;;;;;;;;;4954828;29;20446;-54
2022/06/11 00:19:00;;;;;;;3.40;2.97;;;;;;;;;;4954828;29;20810;-54
2022/06/11 00:21:27;;;;;;;3.50;3.00;;;;;;;;;;4954431;28;20953;-54
2022/06/11 00:23:53;;;;;;;6.33;3.53;;;;;;;;;;4954678;29;20414;-54
2022/06/11 00:26:20;;;;;;;5.63;2.77;;;;;;;;;;4954663;29;20474;-54
2022/06/11 00:28:46;;;;;;;4.13;2.80;;;;;;;;;;4954499;29;20895;-54
2022/06/11 00:31:13;;;;;;;3.87;2.97;;;;;;;;;;4954339;28;20426;-54
2022/06/11 00:33:39;;;;;;;3.30;3.00;;;;;;;;;;4954424;29;20426;-54
2022/06/11 00:36:06;;;;;;;2.77;2.57;;;;;;;;;;4954445;29;20757;-54
2022/06/11 00:38:32;;;;;;;5.80;2.70;;;;;;;;;;4954466;29;20410;-54
2022/06/11 00:40:58;;;;;;;3.70;2.90;;;;;;;;;;4954104;28;20497;-54
2022/06/11 00:43:25;;;;;;;2.40;2.20;;;;;;;;;;4953364;29;20514;-54
2022/06/11 00:46:20;;;;;;;5.47;2.47;;;;;;;;;;4954236;29;20410;-54
2022/06/11 00:48:47;;;;;;;3.43;3.13;;;;;;;;;;4954246;28;20450;-54
2022/06/11 00:51:17;;;;;;;4.63;2.63;;;;;;;;;;4953585;28;20430;-54
2022/06/11 00:53:45;;;;;;;2.67;2.33;;;;;;;;;;4954130;29;20413;-54
2022/06/11 00:56:13;;;;;;;2.90;2.60;;;;;;;;;;4954276;29;20407;-54
2022/06/11 00:58:41;;;;;;;5.97;2.87;;;;;;;;;;4954368;29;20875;-54
2022/06/11 01:01:08;;;;;;;5.43;2.27;;;;;;;;;;4953406;28;20492;-54
2022/06/11 01:03:36;;;;;;;9.90;2.93;;;;;;;;;;4953647;29;20763;-54
2022/06/11 01:06:20;;;;;;;4.33;2.60;;;;;;;;;;4953409;29;20406;-54
2022/06/11 01:08:51;;;;;;;7.73;2.90;;;;;;;;;;4952454;28;20411;-54
2022/06/11 01:11:26;;;;;;;3.50;2.23;;;;;;;;;;4953784;28;20953;-54
2022/06/11 01:14:00;;;;;;;6.37;2.53;;;;;;;;;;4954268;29;20414;-54
2022/06/11 01:16:26;;;;;;;5.60;2.50;;;;;;;;;;4952650;29;20453;-54
2022/06/11 01:18:55;;;;;;;3.57;2.73;;;;;;;;;;4953891;29;20433;-54
2022/06/11 01:21:30;;;;;;;10.30;3.30;;;;;;;;;;4953368;28;20433;-54
2022/06/11 01:24:02;;;;;;;4.70;2.67;;;;;;;;;;4953796;29;20972;-54
2022/06/11 01:26:42;;;;;;;3.10;2.80;;;;;;;;;;4953503;29;20423;-54
2022/06/11 01:29:11;;;;;;;3.10;2.63;;;;;;;;;;4953590;29;20437;-54
2022/06/11 01:31:50;;;;;;;3.70;2.37;;;;;;;;;;4953468;28;20977;-54
2022/06/11 01:34:27;;;;;;;4.33;2.60;;;;;;;;;;4953767;29;20532;-54
2022/06/11 01:36:55;;;;;;;6.40;2.93;;;;;;;;;;4953795;29;20416;-54
2022/06/11 01:39:37;;;;;;;8.47;3.63;;;;;;;;;;4953597;29;20425;-54
2022/06/11 01:42:07;;;;;;;3.10;2.70;;;;;;;;;;4953315;28;20467;-54
2022/06/11 01:44:37;;;;;;;4.80;2.70;;;;;;;;;;4953694;29;20402;-54
2022/06/11 01:47:03;;;;;;;2.90;2.70;;;;;;;;;;4953639;29;20481;-54
2022/06/11 01:49:29;;;;;;;3.73;3.13;;;;;;;;;;4953766;29;20410;-54
2022/06/11 01:52:01;;;;;;;3.70;2.60;;;;;;;;;;4953262;28;20447;-54
2022/06/11 01:54:40;;;;;;;5.80;3.50;;;;;;;;;;4953513;29;20789;-54
2022/06/11 01:57:27;;;;;;;4.23;2.53;;;;;;;;;;4953525;28;20528;-54
2022/06/11 01:59:55;;;;;;;5.20;3.20;;;;;;;;;;4953506;29;20417;-54
2022/06/11 02:02:24;;;;;;;3.87;3.40;;;;;;;;;;4953325;28;20952;-54
2022/06/11 02:05:09;;;;;;;3.63;2.93;;;;;;;;;;4953684;29;20410;-54
2022/06/11 02:07:58;;;;;;;3.70;3.23;;;;;;;;;;4953533;29;20398;-54
2022/06/11 02:10:34;;;;;;;3.00;2.80;;;;;;;;;;4945678;28;20807;-54
2022/06/11 02:13:08;;;;;;;3.00;2.80;;;;;;;;;;4953357;29;20400;-54
2022/06/11 02:15:39;;;;;;;4.03;2.87;;;;;;;;;;4953403;29;20882;-54
2022/06/11 02:18:09;;;;;;;4.30;3.23;;;;;;;;;;4953330;29;20405;-54
2022/06/11 02:20:38;;;;;;;3.60;3.30;;;;;;;;;;4954250;28;20444;-54
2022/06/11 02:23:04;;;;;;;3.33;3.00;;;;;;;;;;4956835;29;20457;-54
2022/06/11 02:25:30;;;;;;;5.47;3.47;;;;;;;;;;4956872;29;20408;-54
2022/06/11 02:27:57;;;;;;;3.27;2.97;;;;;;;;;;4956791;29;20452;-54
2022/06/11 02:30:25;;;;;;;4.67;3.33;;;;;;;;;;4956487;28;20412;-54
2022/06/11 02:32:51;;;;;;;3.97;3.10;;;;;;;;;;4956608;29;20381;-54
2022/06/11 02:35:25;;;;;;;5.07;3.30;;;;;;;;;;4956732;29;20444;-54
2022/06/11 02:37:51;;;;;;;3.13;2.73;;;;;;;;;;4956536;29;20819;-54
2022/06/11 02:40:20;;;;;;;4.60;3.70;;;;;;;;;;4956417;28;20407;-54
2022/06/11 02:42:46;;;;;;;3.97;3.53;;;;;;;;;;4956465;29;20908;-54
2022/06/11 02:45:13;;;;;;;4.03;3.77;;;;;;;;;;4956110;29;20410;-55
2022/06/11 02:47:40;;;;;;;4.57;3.07;;;;;;;;;;4956866;29;20763;-54
2022/06/11 02:50:06;;;;;;;6.40;3.53;;;;;;;;;;4956224;29;20706;-54
2022/06/11 02:52:33;;;;;;;5.47;3.10;;;;;;;;;;4956232;28;20434;-55
2022/06/11 02:54:59;;;;;;;4.90;3.23;;;;;;;;;;4956416;29;20469;-54
2022/06/11 02:57:27;;;;;;;3.23;2.93;;;;;;;;;;4956407;29;20421;-54
2022/06/11 02:59:53;;;;;;;3.67;3.37;;;;;;;;;;4956043;29;20499;-53
2022/06/11 03:02:20;;;;;;;4.03;3.47;;;;;;;;;;4956153;28;20464;-54
2022/06/11 03:04:46;;;;;;;4.40;4.00;;;;;;;;;;4956141;29;20413;-54
2022/06/11 03:07:13;;;;;;;3.97;3.50;;;;;;;;;;4955957;29;20409;-54
2022/06/11 03:09:39;;;;;;;5.03;3.30;;;;;;;;;;4956091;29;20468;-54
2022/06/11 03:12:07;;;;;;;3.80;3.50;;;;;;;;;;4955750;28;20528;-55
2022/06/11 03:14:33;;;;;;;6.70;3.37;;;;;;;;;;4956052;29;20402;-54
2022/06/11 03:16:59;;;;;;;5.30;3.70;;;;;;;;;;4955952;29;20417;-54
2022/06/11 03:19:24;;;;;;;8.00;3.53;;;;;;;;;;4955855;29;20412;-54
2022/06/11 03:21:54;;;;;;;7.27;3.20;;;;;;;;;;4955393;28;20507;-54
2022/06/11 03:24:20;;;;;;;3.97;3.50;;;;;;;;;;4955783;29;20409;-54
2022/06/11 03:26:47;;;;;;;13.50;7.40;;;;;;;;;;4955759;29;20372;-54
2022/06/11 03:29:15;;;;;;;7.70;3.50;;;;;;;;;;4955864;29;20455;-54
2022/06/11 03:31:41;;;;;;;7.20;3.30;;;;;;;;;;4954397;28;20460;-54
2022/06/11 03:34:07;;;;;;;9.83;4.10;;;;;;;;;;4955397;29;20476;-54
2022/06/11 03:36:33;;;;;;;5.13;3.40;;;;;;;;;;4955580;29;20384;-54
2022/06/11 03:38:59;;;;;;;3.90;3.60;;;;;;;;;;4955553;29;20406;-54
2022/06/11 03:41:25;;;;;;;6.83;3.63;;;;;;;;;;4955265;28;20929;-54
2022/06/11 03:43:51;;;;;;;5.63;3.00;;;;;;;;;;4955524;29;20604;-54
2022/06/11 03:46:18;;;;;;;3.97;3.60;;;;;;;;;;4955456;29;20407;-54
2022/06/11 03:48:44;;;;;;;5.00;3.50;;;;;;;;;;4955838;29;20402;-54
2022/06/11 03:51:11;;;;;;;5.17;3.20;;;;;;;;;;4954928;28;20399;-53
2022/06/11 03:53:38;;;;;;;5.23;3.50;;;;;;;;;;4955336;29;20390;-54
2022/06/11 03:56:05;;;;;;;8.27;4.63;;;;;;;;;;4954989;29;20415;-54
2022/06/11 03:58:31;;;;;;;5.60;3.50;;;;;;;;;;4955186;29;20923;-54
2022/06/11 04:01:16;;;;;;;4.97;3.33;;;;;;;;;;4954811;28;20464;-54
2022/06/11 04:04:02;;;;;;;5.97;3.60;;;;;;;;;;4954954;29;20561;-54
2022/06/11 04:06:30;;;;;;;13.77;4.27;;;;;;;;;;4954910;29;20387;-54
2022/06/11 04:08:56;;;;;;;4.07;3.53;;;;;;;;;;4954905;29;20412;-54
2022/06/11 04:11:23;;;;;;;4.80;3.20;;;;;;;;;;4954639;28;20409;-54
2022/06/11 04:13:49;;;;;;;3.70;3.40;;;;;;;;;;4954989;29;20407;-54
2022/06/11 04:16:35;;;;;;;3.57;3.27;;;;;;;;;;4954803;29;20379;-54
2022/06/11 04:19:02;;;;;;;3.83;3.17;;;;;;;;;;4954747;29;20416;-54
2022/06/11 04:21:29;;;;;;;6.30;3.63;;;;;;;;;;4954423;28;20426;-54
2022/06/11 04:23:57;;;;;;;4.50;3.40;;;;;;;;;;4954669;29;20959;-54
2022/06/11 04:26:27;;;;;;;3.57;3.17;;;;;;;;;;4954454;29;20413;-54
2022/06/11 04:28:55;;;;;;;6.63;4.30;;;;;;;;;;4954606;29;20415;-54
2022/06/11 04:31:22;;;;;;;11.57;3.90;;;;;;;;;;4954036;28;20418;-54
2022/06/11 04:33:48;;;;;;;4.00;3.60;;;;;;;;;;4954494;29;20497;-53
2022/06/11 04:36:14;;;;;;;3.70;3.40;;;;;;;;;;4954573;29;20876;-54
2022/06/11 04:38:41;;;;;;;8.43;3.67;;;;;;;;;;4954374;29;20416;-54
2022/06/11 04:41:07;;;;;;;6.50;3.67;;;;;;;;;;4953952;28;20407;-54
2022/06/11 04:43:34;;;;;;;4.67;4.03;;;;;;;;;;4953971;28;20467;-54
2022/06/11 04:45:59;;;;;;;7.10;4.10;;;;;;;;;;4985793;23;20525;-53
2022/06/11 04:48:25;;;;;;;4.60;3.50;;;;;;;;;;4975430;28;20458;-53
2022/06/11 04:50:52;;;;;;;5.33;3.50;;;;;;;;;;4975403;28;20409;-53
2022/06/11 04:53:18;;;;;;;5.93;3.00;;;;;;;;;;4975281;28;20414;-53
2022/06/11 04:55:45;;;;;;;6.30;3.70;;;;;;;;;;4974654;28;20432;-53
2022/06/11 04:58:11;;;;;;;4.40;4.00;;;;;;;;;;4975239;28;20470;-52
2022/06/11 05:00:37;;;;;;;3.77;3.57;;;;;;;;;;4975293;28;20421;-52
2022/06/11 05:03:03;;;;;;;5.57;3.80;;;;;;;;;;4975200;28;20970;-53
2022/06/11 05:05:30;;;;;;;3.60;3.30;;;;;;;;;;4974892;28;20405;-53
2022/06/11 05:07:56;;;;;;;7.13;3.27;;;;;;;;;;4975042;28;20403;-53
2022/06/11 05:10:23;;;;;;;5.50;3.60;;;;;;;;;;4974483;28;20776;-53
2022/06/11 05:12:49;;;;;;;8.07;3.87;;;;;;;;;;4974884;28;20403;-53
2022/06/11 05:15:15;;;;;;;3.50;3.20;;;;;;;;;;4973935;28;20425;-53
2022/06/11 05:17:41;;;;;;;9.90;3.57;;;;;;;;;;4974035;28;20519;-53
2022/06/11 05:20:08;;;;;;;4.77;4.37;;;;;;;;;;4974445;28;20989;-53
2022/06/11 05:22:35;;;;;;;3.60;3.30;;;;;;;;;;4975116;28;20487;-53
2022/06/11 05:25:01;;;;;;;4.37;3.47;;;;;;;;;;4974905;28;20404;-53
2022/06/11 05:27:27;;;;;;;3.90;3.57;;;;;;;;;;4975366;28;20883;-52
2022/06/11 05:29:56;;;;;;;5.23;3.03;;;;;;;;;;4974657;28;20500;-52
2022/06/11 05:32:23;;;;;;;5.80;3.40;;;;;;;;;;4974851;28;20400;-53
2022/06/11 05:34:49;;;;;;;5.20;3.30;;;;;;;;;;4974697;28;20771;-52
2022/06/11 05:37:16;;;;;;;3.50;3.20;;;;;;;;;;4976271;28;20433;-53
2022/06/11 05:39:42;;;;;;;3.20;2.73;;;;;;;;;;4976240;28;20414;-53
2022/06/11 05:42:08;;;;;;;4.67;3.23;;;;;;;;;;4975332;28;20444;-53
2022/06/11 05:44:35;;;;;;;4.93;2.90;;;;;;;;;;4975593;28;20508;-53
2022/06/11 05:47:01;;;;;;;3.37;2.90;;;;;;;;;;4975553;28;20452;-53
2022/06/11 05:49:29;;;;;;;5.27;3.00;;;;;;;;;;4975262;28;20406;-53
2022/06/11 05:51:57;;;;;;;4.47;3.30;;;;;;;;;;4974961;28;20441;-53
2022/06/11 05:54:24;;;;;;;5.50;2.80;;;;;;;;;;4975267;28;20442;-53
2022/06/11 05:56:51;;;;;;;3.90;3.40;;;;;;;;;;4986786;28;20450;-53
2022/06/11 05:59:23;;;;;;;3.40;2.70;;;;;;;;;;4996606;28;20441;-54
2022/06/11 06:01:49;;;;;;;3.10;2.80;;;;;;;;;;4984047;28;20501;-52
2022/06/11 06:04:16;;;;;;;3.47;2.50;;;;;;;;;;4997823;28;20441;-53
2022/06/11 06:06:43;;;;;;;4.37;3.10;;;;;;;;;;4999147;28;20433;-51
2022/06/11 06:09:09;;;;;;;3.00;2.70;;;;;;;;;;4997934;28;20421;-52
2022/06/11 06:11:35;;;;;;;5.83;3.00;;;;;;;;;;4995519;28;20416;-53
2022/06/11 06:14:01;;;;;;;3.30;3.00;;;;;;;;;;4995937;28;20415;-52
2022/06/11 06:16:29;;;;;;;3.53;2.53;;;;;;;;;;4995774;28;20508;-53
2022/06/11 06:18:56;;;;;;;3.40;3.10;;;;;;;;;;4995881;28;20407;-51
2022/06/11 06:21:23;;;;;;;4.37;3.20;;;;;;;;;;4995551;28;20414;-52
2022/06/11 06:23:49;;;;;;;2.67;2.47;;;;;;;;;;4995712;28;20484;-51
2022/06/11 06:26:15;;;;;;;5.13;2.83;;;;;;;;;;4995622;28;20458;-51
2022/06/11 06:28:41;;;;;;;5.23;3.37;;;;;;;;;;4995522;28;20917;-51
2022/06/11 06:31:08;;;;;;;3.80;2.90;;;;;;;;;;4995084;28;20458;-51
2022/06/11 06:33:34;;;;;;;4.97;2.70;;;;;;;;;;4995604;28;20494;-50
2022/06/11 06:36:01;;;;;;;3.83;2.90;;;;;;;;;;4995339;28;20861;-51
2022/06/11 06:38:28;;;;;;;2.97;2.67;;;;;;;;;;4982718;28;20427;-53
2022/06/11 06:40:54;;;;;;;3.60;3.00;;;;;;;;;;4954941;28;20423;-51
2022/06/11 06:43:20;;;;;;;3.30;3.00;;;;;;;;;;4956663;29;20467;-51
2022/06/11 06:45:47;;;;;;;5.47;2.40;;;;;;;;;;4956530;29;20480;-51
2022/06/11 06:48:13;;;;;;;5.87;3.70;;;;;;;;;;4956539;29;20409;-51
2022/06/11 06:50:39;;;;;;;4.40;2.57;;;;;;;;;;4956420;29;20413;-51
2022/06/11 06:53:05;;;;;;;4.23;2.90;;;;;;;;;;4956357;28;20472;-52
2022/06/11 06:55:31;;;;;;;7.60;3.53;;;;;;;;;;4956058;29;20484;-51
2022/06/11 06:57:57;;;;;;;3.73;2.77;;;;;;;;;;4956573;29;20406;-51
2022/06/11 07:00:23;;;;;;;3.83;3.50;;;;;;;;;;4956031;29;20913;-51
2022/06/11 07:02:52;;;;;;;4.17;3.30;;;;;;;;;;4956207;29;20571;-51
2022/06/11 07:05:18;;;;;;;6.30;3.60;;;;;;;;;;4956201;28;20451;-52
2022/06/11 07:07:47;;;;;;;3.33;2.60;;;;;;;;;;4953667;28;20420;-51
2022/06/11 07:10:14;;;;;;;3.63;2.70;;;;;;;;;;4955829;28;20487;-51
2022/06/11 07:12:39;;;;;;;4.37;3.23;;;;;;;;;;4955985;29;20381;-52
2022/06/11 07:15:06;;;;;;;3.07;2.80;;;;;;;;;;4955901;29;20417;-53
2022/06/11 07:17:34;;;;;;;5.97;3.07;;;;;;;;;;4956005;28;20455;-51
2022/06/11 07:20:04;;;;;;;3.57;3.27;;;;;;;;;;4971884;28;20456;-52
2022/06/11 07:22:34;;;;;;;3.43;2.93;;;;;;;;;;4993790;28;20964;-51
2022/06/11 07:25:02;;;;;;;5.83;3.07;;;;;;;;;;4993297;28;20416;-51
2022/06/11 07:27:29;;;;;;;3.97;2.90;;;;;;;;;;4994472;28;20470;-51
2022/06/11 07:29:56;;;;;;;2.83;2.60;;;;;;;;;;4994407;28;20411;-53
2022/06/11 07:32:25;;;;;;;4.23;2.83;;;;;;;;;;4994176;28;20408;-51
2022/06/11 07:34:51;;;;;;;4.60;2.93;;;;;;;;;;4994434;28;20410;-50
2022/06/11 07:37:17;;;;;;;3.57;2.90;;;;;;;;;;4978410;28;20460;-52
2022/06/11 07:39:43;;;;;;;3.40;2.93;;;;;;;;;;4986971;28;20446;-52
2022/06/11 07:42:10;;;;;;;2.80;2.63;;;;;;;;;;4993905;28;20454;-51
2022/06/11 07:44:36;;;;;;;4.03;2.90;;;;;;;;;;4992770;28;20412;-51
2022/06/11 07:47:03;;;;;;;6.67;3.00;;;;;;;;;;4988148;28;20440;-51
2022/06/11 07:49:29;;;;;;;2.80;2.47;;;;;;;;;;4994218;28;20895;-51
2022/06/11 07:51:55;;;;;;;6.00;3.27;;;;;;;;;;4993628;28;20407;-51
2022/06/11 07:54:21;;;;;;;5.20;3.70;;;;;;;;;;4992760;28;20495;-51
2022/06/11 07:56:47;;;;;;;6.00;3.90;;;;;;;;;;4992759;28;20431;-51
2022/06/11 07:59:13;;;;;;;4.10;3.70;;;;;;;;;;4993985;28;20410;-52
2022/06/11 08:01:39;;;;;;;3.80;3.50;;;;;;;;;;4993385;28;20400;-51
2022/06/11 08:04:05;;;;;;;6.80;5.73;;;;;;;;;;4993951;28;20892;-52
2022/06/11 08:06:31;;;;;;;5.10;4.60;;;;;;;;;;4993651;28;20452;-52
2022/06/11 08:08:58;;;;;;;6.30;5.23;;;;;;;;;;4988559;28;20410;-53
2022/06/11 08:11:24;;;;;;;8.30;5.70;;;;;;;;;;4980694;28;20777;-52
2022/06/11 08:13:50;;;;;;;7.13;4.80;;;;;;;;;;4986835;28;20411;-52
2022/06/11 08:16:16;;;;;;;5.57;4.40;;;;;;;;;;4989067;28;20431;-52
2022/06/11 08:18:44;;;;;;;5.93;4.90;;;;;;;;;;4991727;28;20412;-53
2022/06/11 08:21:10;;;;;;;5.10;4.60;;;;;;;;;;4993064;28;20419;-51
2022/06/11 08:23:36;;;;;;;7.20;4.57;;;;;;;;;;4993203;28;20934;-52
2022/06/11 08:26:03;;;;;;;6.90;6.30;;;;;;;;;;4993312;28;20841;-51
2022/06/11 08:28:29;;;;;;;6.43;5.93;;;;;;;;;;4993289;28;20418;-52
2022/06/11 08:30:55;;;;;;;7.60;6.90;;;;;;;;;;4980920;28;20425;-52
2022/06/11 08:33:21;;;;;;;6.97;6.20;;;;;;;;;;4975712;28;20424;-51
2022/06/11 08:35:47;;;;;;;5.90;5.50;;;;;;;;;;4981576;28;21033;-52
2022/06/11 08:38:13;;;;;;;7.17;6.47;;;;;;;;;;4978934;28;20424;-51
2022/06/11 08:40:41;;;;;;;6.30;5.80;;;;;;;;;;4992658;28;20458;-52
2022/06/11 08:43:13;;;;;;;5.93;5.43;;;;;;;;;;4992032;28;20559;-52
2022/06/11 08:45:43;;;;;;;5.27;4.87;;;;;;;;;;4992920;28;20436;-52
2022/06/11 08:48:22;;;;;;;5.30;4.60;;;;;;;;;;4993040;28;20414;-51
2022/06/11 08:51:07;;;;;;;5.00;4.70;;;;;;;;;;4992782;28;20455;-52
2022/06/11 08:53:36;;;;;;;7.67;4.90;;;;;;;;;;4993219;28;20483;-52
2022/06/11 08:56:02;;;;;;;5.90;5.40;;;;;;;;;;4992867;28;20424;-52
2022/06/11 08:58:35;;;;;;;6.27;5.40;;;;;;;;;;4992898;28;20482;-52
2022/06/11 09:01:23;;;;;;;5.33;4.93;;;;;;;;;;4992586;28;20453;-52
2022/06/11 09:03:49;;;;;;;6.00;5.40;;;;;;;;;;4992709;28;20506;-52
2022/06/11 09:06:15;;;;;;;5.47;4.97;;;;;;;;;;4992894;28;20459;-51
2022/06/11 09:09:00;;;;;;;5.33;4.90;;;;;;;;;;4992720;28;20396;-51
2022/06/11 09:11:34;;;;;;;5.17;4.60;;;;;;;;;;4992481;28;20656;-51
2022/06/11 09:14:06;;;;;;;4.97;4.23;;;;;;;;;;4992660;28;20482;-52
2022/06/11 09:16:51;;;;;;;4.20;3.73;;;;;;;;;;4992723;28;20428;-54
2022/06/11 09:19:29;;;;;;;6.13;4.10;;;;;;;;;;4992719;28;20404;-52
2022/06/11 09:21:58;;;;;;;3.70;3.43;;;;;;;;;;4992268;28;20470;-53
2022/06/11 09:24:48;;;;;;;3.77;3.43;;;;;;;;;;4992550;28;20392;-52
2022/06/11 09:27:21;;;;;;;5.93;3.50;;;;;;;;;;4992510;28;20989;-52
2022/06/11 09:29:47;;;;;;;5.13;3.90;;;;;;;;;;4991727;28;20397;-52
2022/06/11 09:32:15;;;;;;;4.60;3.90;;;;;;;;;;4992053;28;20760;-53
2022/06/11 09:34:41;;;;;;;4.10;3.47;;;;;;;;;;4992422;28;20191;-52
2022/06/11 09:37:14;;;;;;;3.50;3.30;;;;;;;;;;4992388;28;20412;-52
2022/06/11 09:39:51;;;;;;;3.67;3.37;;;;;;;;;;4992294;28;20400;-52
2022/06/11 09:42:23;;;;;;;2.60;2.40;;;;;;;;;;4992239;28;20451;-51
2022/06/11 09:44:49;;;;;;;3.17;2.87;;;;;;;;;;4992289;28;20447;-51
2022/06/11 09:47:25;;;;;;;2.80;2.50;;;;;;;;;;4992139;28;20443;-51
2022/06/11 09:49:51;;;;;;;5.13;2.03;;;;;;;;;;4992441;28;20404;-53
2022/06/11 09:52:21;;;;;;;6.33;2.17;;;;;;;;;;4992233;28;20731;-52
2022/06/11 09:54:50;;;;;;;2.17;2.07;;;;;;;;;;4992332;28;20772;-51
2022/06/11 09:57:28;;;;;;;2.40;2.20;;;;;;;;;;4992131;28;20427;-52
2022/06/11 09:59:59;;;;;;;2.23;2.03;;;;;;;;;;4992001;28;20919;-53
2022/06/11 10:05:49;;;;;;;2.53;2.00;;;;;;;;;;4992165;28;20431;-52
2022/06/11 10:08:19;;;;;;;3.87;1.70;;;;;;;;;;4992169;28;20392;-52
2022/06/11 10:10:46;;;;;;;1.97;1.87;;;;;;;;;;4991814;28;20400;-52
2022/06/11 10:13:21;;;;;;;1.87;1.67;;;;;;;;;;4992155;28;20462;-51
2022/06/11 10:15:48;;;;;;;2.93;1.77;;;;;;;;;;4992012;28;20426;-53
2022/06/11 10:18:20;;;;;;;3.80;2.00;;;;;;;;;;4992000;28;20495;-52
2022/06/11 10:20:48;;;;;;;1.70;1.37;;;;;;;;;;4991814;28;20400;-52
2022/06/11 10:23:23;;;;;;;2.10;1.70;;;;;;;;;;4992010;28;20510;-52
2022/06/11 10:25:55;;;;;;;1.60;1.50;;;;;;;;;;4991964;28;20419;-52
2022/06/11 10:28:33;;;;;;;3.40;2.17;;;;;;;;;;4992469;28;20404;-52
2022/06/11 10:31:09;;;;;;;2.30;1.50;;;;;;;;;;4991494;28;20463;-52
2022/06/11 10:33:40;;;;;;;3.37;2.07;;;;;;;;;;4991959;28;20400;-51
2022/06/11 10:36:09;;;;;;;1.97;1.80;;;;;;;;;;4991977;28;20459;-53
2022/06/11 10:38:54;;;;;;;3.63;1.80;;;;;;;;;;4991790;28;20895;-52
2022/06/11 10:41:23;;;;;;;2.00;1.80;;;;;;;;;;4992341;28;20422;-52
2022/06/11 10:44:09;;;;;;;2.00;1.90;;;;;;;;;;4995266;28;20459;-52
2022/06/11 10:46:37;;;;;;;2.70;2.13;;;;;;;;;;4996129;23;20506;-53
2022/06/11 10:49:04;;;;;;;3.20;1.80;;;;;;;;;;4975807;28;20393;-54
2022/06/11 10:51:32;;;;;;;2.07;1.90;;;;;;;;;;4974931;28;20393;-53
2022/06/11 10:53:58;;;;;;;2.20;2.03;;;;;;;;;;4975645;28;20884;-54
2022/06/11 10:56:34;;;;;;;2.40;2.20;;;;;;;;;;4975512;28;20449;-53
2022/06/11 10:59:03;;;;;;;2.60;2.30;;;;;;;;;;4975674;28;20436;-54
2022/06/11 11:01:32;;;;;;;2.40;2.20;;;;;;;;;;4975241;28;20404;-54
2022/06/11 11:04:28;;;;;;;4.67;2.37;;;;;;;;;;4975453;28;20465;-54
2022/06/11 11:07:14;;;;;;;4.40;2.10;;;;;;;;;;4959271;28;20437;-53
2022/06/11 11:09:40;;;;;;;4.20;2.50;;;;;;;;;;4975350;28;20412;-54
2022/06/11 11:12:07;;;;;;;2.60;2.40;;;;;;;;;;4975154;28;20480;-54
2022/06/11 11:14:41;;;;;;;2.90;2.70;;;;;;;;;;4975393;28;20440;-54
2022/06/11 11:17:14;;;;;;;2.10;1.83;;;;;;;;;;4975072;28;20444;-53
2022/06/11 11:19:42;;;;;;;2.30;2.20;;;;;;;;;;4975185;28;20470;-53
2022/06/11 11:22:19;;;;;;;4.60;1.80;;;;;;;;;;4974848;28;20456;-53
2022/06/11 11:24:48;;;;;;;2.30;2.10;;;;;;;;;;4975151;28;20400;-53
2022/06/11 11:27:18;;;;;;;2.70;2.50;;;;;;;;;;4974959;28;20836;-53
2022/06/11 11:29:54;;;;;;;2.90;2.70;;;;;;;;;;4974858;28;20397;-54
2022/06/11 11:32:36;;;;;;;2.50;2.17;;;;;;;;;;4974854;28;20405;-53
2022/06/11 11:35:21;;;;;;;3.00;2.80;;;;;;;;;;4973757;28;20835;-52
2022/06/11 11:37:57;;;;;;;3.17;2.77;;;;;;;;;;4974718;28;20427;-53
2022/06/11 11:40:31;;;;;;;3.40;2.67;;;;;;;;;;4974615;28;20786;-53
2022/06/11 11:42:59;;;;;;;3.77;3.47;;;;;;;;;;4974773;28;20562;-53
2022/06/11 11:45:27;;;;;;;2.83;2.73;;;;;;;;;;4974714;28;20405;-53
2022/06/11 11:47:55;;;;;;;2.50;2.30;;;;;;;;;;4974474;28;20448;-53
2022/06/11 11:50:33;;;;;;;2.50;2.30;;;;;;;;;;4974429;28;20421;-54
2022/06/11 11:53:03;;;;;;;3.70;2.30;;;;;;;;;;4973946;28;20462;-53
2022/06/11 11:55:31;;;;;;;2.87;2.67;;;;;;;;;;4974593;28;20492;-54
2022/06/11 11:58:02;;;;;;;2.57;2.30;;;;;;;;;;4974405;28;20455;-53
2022/06/11 12:00:33;;;;;;;2.60;2.40;;;;;;;;;;4974273;28;20511;-54
2022/06/11 12:03:04;;;;;;;3.20;2.10;;;;;;;;;;4974164;28;20857;-54
2022/06/11 12:05:35;;;;;;;2.40;2.20;;;;;;;;;;4974322;28;20477;-54
2022/06/11 12:08:01;;;;;;;2.30;2.20;;;;;;;;;;4974367;28;20484;-53
2022/06/11 12:10:37;;;;;;;2.60;2.40;;;;;;;;;;4974027;28;20909;-54
2022/06/11 12:13:04;;;;;;;2.67;2.23;;;;;;;;;;4974124;28;20407;-53
2022/06/11 12:15:31;;;;;;;3.10;2.20;;;;;;;;;;4974033;28;20401;-53
2022/06/11 12:18:00;;;;;;;2.40;2.20;;;;;;;;;;4974101;28;20409;-53
2022/06/11 12:20:32;;;;;;;2.63;2.13;;;;;;;;;;4973864;28;20408;-54
2022/06/11 12:23:04;;;;;;;4.13;3.00;;;;;;;;;;4973964;28;20457;-53
2022/06/11 12:25:33;;;;;;;3.07;2.57;;;;;;;;;;4973927;28;20397;-53
2022/06/11 12:28:00;;;;;;;3.00;2.53;;;;;;;;;;4973731;28;20409;-53
2022/06/11 12:30:27;;;;;;;3.30;2.80;;;;;;;;;;4973814;28;20413;-53
2022/06/11 12:32:54;;;;;;;3.03;2.63;;;;;;;;;;4973908;28;20464;-53
2022/06/11 12:35:25;;;;;;;4.83;2.83;;;;;;;;;;4973882;28;20405;-53
2022/06/11 12:38:00;;;;;;;3.23;2.40;;;;;;;;;;4973655;28;20428;-53
2022/06/11 12:40:32;;;;;;;2.70;2.23;;;;;;;;;;4973384;28;20415;-53
2022/06/11 12:42:58;;;;;;;3.17;2.93;;;;;;;;;;4973551;28;20478;-54
2022/06/11 12:45:29;;;;;;;3.00;2.40;;;;;;;;;;4973729;28;20899;-53
2022/06/11 12:48:14;;;;;;;2.40;2.20;;;;;;;;;;4973402;28;20917;-53
2022/06/11 12:51:03;;;;;;;3.93;2.50;;;;;;;;;;4973296;28;20393;-53
2022/06/11 12:53:48;;;;;;;3.20;2.40;;;;;;;;;;4973542;28;20411;-54
2022/06/11 12:56:30;;;;;;;2.23;2.00;;;;;;;;;;4973518;28;20524;-53
2022/06/11 12:59:15;;;;;;;4.33;2.47;;;;;;;;;;4973435;28;20506;-53
2022/06/11 13:01:47;;;;;;;3.23;2.00;;;;;;;;;;4973322;28;20397;-53
2022/06/11 13:04:31;;;;;;;3.20;2.10;;;;;;;;;;4972946;28;20467;-53
2022/06/11 13:07:00;;;;;;;2.80;1.97;;;;;;;;;;4973038;28;20428;-54
2022/06/11 13:09:33;;;;;;;4.40;1.77;;;;;;;;;;4973300;28;20401;-53
2022/06/11 13:11:59;;;;;;;2.10;2.00;;;;;;;;;;4972940;28;20405;-54
2022/06/11 13:14:31;;;;;;;1.93;1.83;;;;;;;;;;4973404;28;20413;-53
2022/06/11 13:17:04;;;;;;;2.67;1.90;;;;;;;;;;4973051;28;20190;-53
2022/06/11 13:19:33;;;;;;;1.93;1.83;;;;;;;;;;4973237;28;20454;-53
2022/06/11 13:22:14;;;;;;;1.80;1.70;;;;;;;;;;4972716;28;20520;-53
2022/06/11 13:24:40;;;;;;;2.27;2.07;;;;;;;;;;4973181;28;20397;-53
2022/06/11 13:27:15;;;;;;;2.30;2.10;;;;;;;;;;4972880;28;20470;-53
2022/06/11 13:29:53;;;;;;;2.57;2.10;;;;;;;;;;4972998;28;20245;-53
2022/06/11 13:32:46;;;;;;;2.83;2.57;;;;;;;;;;4972531;28;20417;-53
2022/06/11 13:35:26;;;;;;;4.97;2.53;;;;;;;;;;4969611;28;20853;-53
2022/06/11 13:37:57;;;;;;;2.20;2.00;;;;;;;;;;4972905;28;20420;-53
2022/06/11 13:40:39;;;;;;;3.37;1.70;;;;;;;;;;4972716;28;20428;-54
2022/06/11 13:43:08;;;;;;;2.60;2.00;;;;;;;;;;4973221;28;20451;-54
2022/06/11 13:45:56;;;;;;;2.97;2.10;;;;;;;;;;4972856;28;20893;-53
2022/06/11 13:48:27;;;;;;;3.97;1.60;;;;;;;;;;4972871;28;20405;-53
2022/06/11 13:51:00;;;;;;;1.60;1.50;;;;;;;;;;4972675;28;20424;-54
2022/06/11 13:56:22;;;;;;;1.90;1.70;;;;;;;;;;4972818;28;20416;-54
2022/06/11 13:59:18;;;;;;;1.57;1.47;;;;;;;;;;4972763;28;20912;-54
2022/06/11 14:01:59;;;;;;;3.23;1.70;;;;;;;;;;4972504;28;20432;-53
2022/06/11 14:04:37;;;;;;;5.20;2.17;;;;;;;;;;4972691;28;20417;-54
2022/06/11 14:07:06;;;;;;;2.83;1.57;;;;;;;;;;4972643;28;20426;-53
2022/06/11 14:12:37;;;;;;;2.30;1.73;;;;;;;;;;4972514;28;20466;-54
2022/06/11 14:15:29;;;;;;;3.13;1.70;;;;;;;;;;4972649;28;20393;-54
2022/06/11 14:18:21;;;;;;;1.60;1.50;;;;;;;;;;4978887;28;20404;-55
2022/06/11 14:20:47;;;;;;;1.63;1.53;;;;;;;;;;4957139;28;20483;-55
2022/06/11 14:23:13;;;;;;;2.30;1.57;;;;;;;;;;4956257;28;20540;-53
2022/06/11 14:25:44;;;;;;;2.73;1.50;;;;;;;;;;4956240;29;20840;-53
2022/06/11 14:28:16;;;;;;;1.47;1.30;;;;;;;;;;4957595;29;20167;-55
2022/06/11 14:30:42;;;;;;;3.13;1.50;;;;;;;;;;4958028;29;20488;-54
2022/06/11 14:33:11;;;;;;;3.90;1.40;;;;;;;;;;4958605;29;20929;-54
2022/06/11 14:35:39;;;;;;;3.57;1.40;;;;;;;;;;4958449;29;20406;-55
2022/06/11 14:38:30;;;;;;;2.40;1.50;;;;;;;;;;4958675;28;20405;-55
2022/06/11 14:41:09;;;;;;;2.00;1.33;;;;;;;;;;4958557;28;20402;-54
2022/06/11 14:43:53;;;;;;;2.10;1.30;;;;;;;;;;4957989;29;20461;-54
2022/06/11 14:46:38;;;;;;;2.40;1.50;;;;;;;;;;4968170;28;20464;-54
2022/06/11 14:49:23;;;;;;;2.70;1.33;;;;;;;;;;4977485;28;20931;-54
2022/06/11 14:52:04;;;;;;;3.40;1.40;;;;;;;;;;4977532;28;20813;-54
2022/06/11 14:54:33;;;;;;;2.40;1.27;;;;;;;;;;4991287;28;20415;-54
2022/06/11 14:57:11;;;;;;;1.63;1.43;;;;;;;;;;4996471;28;20416;-54
2022/06/11 14:59:56;;;;;;;2.70;1.43;;;;;;;;;;4995140;28;20947;-55
2022/06/11 15:02:25;;;;;;;2.10;1.57;;;;;;;;;;4995048;28;20539;-55
2022/06/11 15:05:10;;;;;;;1.30;1.00;;;;;;;;;;4996438;28;20404;-56
2022/06/11 15:07:51;;;;;;;1.87;1.10;;;;;;;;;;4996637;28;20423;-56
2022/06/11 15:10:35;;;;;;;1.70;1.40;;;;;;;;;;4996950;28;20407;-54
2022/06/11 15:13:16;;;;;;;1.30;1.20;;;;;;;;;;4997607;28;20880;-55